< Cyclone 198615 1987 Season Cyclone 198702 >
Cyclone 198701 (CONNIE)
General InformationTrack Information on Google MapsDetailed Wind InformationList of All Images || ResourceGoogle EarthGE AnimationAtom FeedGeoJSON
Detalied Best Track (Time Zone = UTC)
Year Month Day Hour Lat. Long. Pressure (hPa) Wind (kt) Class Image Chart
1987 1 15 00 -15.7 124.8 1002 23 2 Image --
1987 1 15 03 -15.7 124.8 1001 25 2 Image --
1987 1 15 06 -15.9 124.7 999 29 2 Image --
1987 1 15 09 -16.2 124.6 999 29 2 Image --
1987 1 15 12 -16.4 124.5 999 29 2 Image --
1987 1 15 15 -16.5 124.4 1000 27 2 Image --
1987 1 15 18 -16.6 124.2 1000 27 2 Image --
1987 1 15 21 -16.7 124.1 999 29 2 Image --
1987 1 16 00 -16.8 124.0 1002 23 2 Image --
1987 1 16 03 -16.9 123.9 1001 25 2 Image --
1987 1 16 06 -17.1 123.7 999 29 2 Image --
1987 1 16 09 -17.2 123.0 998 29 2 Image --
1987 1 16 12 -17.1 122.9 998 29 2 Image --
1987 1 16 15 -17.1 122.8 998 29 2 Image --
1987 1 16 18 -16.6 122.6 997 31 2 Image --
1987 1 16 21 -16.4 122.3 997 31 2 Image --
1987 1 17 00 -16.4 122.1 997 31 2 Image --
1987 1 17 03 -16.5 122.0 996 33 2 Image --
1987 1 17 06 -16.7 121.9 995 35 3 Image --
1987 1 17 09 -16.8 121.9 995 35 3 Image --
1987 1 17 12 -17.0 121.9 994 35 3 Image --
1987 1 17 15 -17.1 121.7 994 35 3 Image --
1987 1 17 18 -17.6 121.3 993 37 3 Image --
1987 1 17 21 -17.6 121.4 991 41 3 Image --
1987 1 18 00 -17.7 121.0 988 45 3 Image --
1987 1 18 03 -17.8 120.5 986 47 3 Image --
1987 1 18 06 -18.0 119.9 983 51 4 Image --
1987 1 18 09 -18.1 119.4 980 54 4 Image --
1987 1 18 12 -18.4 119.2 976 58 4 Image --
1987 1 18 15 -18.6 119.0 973 62 4 Image --
1987 1 18 18 -19.0 118.7 970 66 5 Image --
1987 1 18 21 -19.3 118.7 966 70 5 Image --
1987 1 19 00 -19.4 118.6 962 74 5 Image --
1987 1 19 03 -19.7 118.6 955 80 5 Image --
1987 1 19 06 -19.8 118.5 950 84 5 Image --
1987 1 19 09 -20.2 118.5 950 84 5 Image --
1987 1 19 12 -20.4 118.4 955 80 5 Image --
1987 1 19 15 -20.8 118.0 960 76 5 Image --
1987 1 19 18 -21.1 117.5 965 70 5 Image --
1987 1 19 21 -21.6 118.0 970 66 5 Image --
1987 1 20 00 -21.9 118.4 974 60 4 Image --
1987 1 20 03 -22.2 118.4 977 56 4 Image --
1987 1 20 06 -22.5 118.3 980 54 4 Image --
1987 1 20 09 -22.9 118.2 980 54 4 Image --
1987 1 20 12 -23.4 118.2 980 54 4 Image --
1987 1 20 15 -23.8 118.4 980 54 4 Image --
1987 1 20 18 -24.4 118.6 980 54 4 Image --
1987 1 20 21 -25.0 118.8 980 54 4 Image --
1987 1 21 00 -25.8 118.9 982 51 4 Image --
1987 1 21 03 -26.2 119.5 985 47 3 Image --
1987 1 21 06 -26.9 119.6 990 41 3 Image --
1987 1 21 09 -27.1 119.7 990 41 3 Image --
1987 1 21 12 -27.4 120.0 990 41 3 Image --
1987 1 21 15 -27.9 120.5 992 39 3 Image --
1987 1 21 18 -28.3 121.5 993 37 3 Image --
1987 1 21 21 -29.0 122.1 994 35 3 Image --
1987 1 22 00 -29.2 122.7 994 35 3 Image --
1987 1 22 03 -29.4 123.3 993 37 3 Image --
1987 1 22 06 -29.8 123.9 992 39 3 Image --
1987 1 22 09 -30.3 124.6 994 35 3 Image --
1987 1 22 12 -30.6 125.2 994 35 3 Image --
1987 1 22 15 -31.6 125.8 995 35 3 Image --
1987 1 22 18 -32.0 126.2 996 33 2 Image --
1987 1 22 21 -32.4 126.5 996 33 2 Image --
1987 1 23 00 -33.9 127.0 997 31 2 Image --
1987 1 23 03 -34.9 127.1 998 29 2 Image --
1987 1 23 06 -36.8 127.1 996 33 2 Image --
< Cyclone 198615 1987 Season Cyclone 198702 >

Help